createdAt,value
2019-02-04T00:00:06.884Z,0.00
2019-02-04T00:01:06.973Z,0.00
2019-02-04T00:02:07.063Z,0.00
2019-02-04T00:03:07.148Z,0.00
2019-02-04T00:04:07.232Z,0.00
2019-02-04T00:05:07.315Z,0.00
2019-02-04T00:06:07.403Z,0.00
2019-02-04T00:07:07.486Z,0.00
2019-02-04T00:08:07.572Z,0.00
2019-02-04T00:09:07.656Z,0.00
2019-02-04T00:10:07.741Z,0.00
2019-02-04T00:11:07.829Z,0.00
2019-02-04T00:12:07.919Z,0.00
2019-02-04T00:13:08.001Z,0.00
2019-02-04T00:14:08.087Z,0.00
2019-02-04T00:15:08.173Z,0.00
2019-02-04T00:16:08.262Z,0.00
2019-02-04T00:17:08.342Z,0.00
2019-02-04T00:18:08.430Z,0.00
2019-02-04T00:19:08.517Z,0.00
2019-02-04T00:20:08.603Z,0.00
2019-02-04T00:21:08.702Z,0.00
2019-02-04T00:22:08.773Z,0.00
2019-02-04T00:23:08.864Z,0.00
2019-02-04T00:24:08.950Z,0.00
2019-02-04T00:25:09.035Z,0.00
2019-02-04T00:26:09.125Z,0.00
2019-02-04T00:27:09.209Z,0.00
2019-02-04T00:28:09.292Z,0.00
2019-02-04T00:29:09.386Z,0.00
2019-02-04T00:30:09.475Z,0.00
2019-02-04T00:31:09.559Z,0.00
2019-02-04T00:32:09.648Z,0.00
2019-02-04T00:33:09.732Z,0.00
2019-02-04T00:34:09.820Z,0.00
2019-02-04T00:35:09.909Z,0.00
2019-02-04T00:36:09.996Z,0.00
2019-02-04T00:37:10.079Z,0.00
2019-02-04T00:38:10.163Z,0.00
2019-02-04T00:39:10.246Z,0.00
2019-02-04T00:40:10.334Z,0.00
2019-02-04T00:41:10.422Z,0.00
2019-02-04T00:42:10.508Z,0.00
2019-02-04T00:43:10.599Z,0.00
2019-02-04T00:44:10.682Z,0.00
2019-02-04T00:45:10.765Z,0.00
2019-02-04T00:46:10.848Z,0.00
2019-02-04T00:47:10.939Z,0.00
2019-02-04T00:48:11.027Z,0.00
2019-02-04T00:49:11.110Z,0.00
2019-02-04T00:50:11.198Z,0.00
2019-02-04T00:51:11.283Z,0.00
2019-02-04T00:52:11.373Z,0.00
2019-02-04T00:53:11.460Z,0.00
2019-02-04T00:54:11.543Z,0.00
2019-02-04T00:55:11.639Z,0.00
2019-02-04T00:56:11.724Z,0.00
2019-02-04T00:57:11.812Z,0.00
2019-02-04T00:58:11.904Z,0.00
2019-02-04T00:59:11.983Z,0.00
2019-02-04T01:00:12.071Z,0.00
2019-02-04T01:01:12.162Z,0.00
2019-02-04T01:02:12.252Z,0.00
2019-02-04T01:03:12.331Z,0.00
2019-02-04T01:04:12.417Z,0.00
2019-02-04T01:05:12.506Z,0.00
2019-02-04T01:06:12.593Z,0.00
2019-02-04T01:07:12.680Z,0.00
2019-02-04T01:08:12.763Z,0.00
2019-02-04T01:09:14.974Z,0.00
2019-02-04T01:10:12.936Z,0.00
2019-02-04T01:11:13.022Z,0.00
2019-02-04T01:12:13.107Z,0.00
2019-02-04T01:13:13.194Z,0.00
2019-02-04T01:14:13.276Z,0.00
2019-02-04T01:15:13.363Z,0.00
2019-02-04T01:16:13.449Z,0.00
2019-02-04T01:17:13.537Z,0.00
2019-02-04T01:18:13.623Z,0.00
2019-02-04T01:19:13.707Z,0.00
2019-02-04T01:20:13.793Z,0.00
2019-02-04T01:21:13.879Z,0.00
2019-02-04T01:22:13.964Z,0.00
2019-02-04T01:23:14.050Z,0.00
2019-02-04T01:24:14.137Z,0.00
2019-02-04T01:25:14.224Z,0.00
2019-02-04T01:26:14.309Z,0.00
2019-02-04T01:27:14.397Z,0.00
2019-02-04T01:28:14.482Z,0.00
2019-02-04T01:29:14.565Z,0.00
2019-02-04T01:30:14.652Z,0.00
2019-02-04T01:31:14.739Z,0.00
2019-02-04T01:32:14.841Z,0.00
2019-02-04T01:33:14.912Z,0.00
2019-02-04T01:34:14.995Z,0.00
2019-02-04T01:35:15.079Z,0.00
2019-02-04T01:36:15.165Z,0.00
2019-02-04T01:37:15.254Z,0.00
2019-02-04T01:38:15.338Z,0.00
2019-02-04T01:39:15.427Z,0.00
2019-02-04T01:40:15.525Z,0.00
2019-02-04T01:41:15.598Z,0.00
2019-02-04T01:42:15.682Z,0.00
2019-02-04T01:43:15.768Z,0.00
2019-02-04T01:44:15.859Z,0.00
2019-02-04T01:45:15.951Z,0.00
2019-02-04T01:46:16.039Z,0.00
2019-02-04T01:47:16.120Z,0.00
2019-02-04T01:48:16.205Z,0.00
2019-02-04T01:49:16.292Z,0.00
2019-02-04T01:50:16.370Z,0.00
2019-02-04T01:51:16.459Z,0.00
2019-02-04T01:52:16.544Z,0.00
2019-02-04T01:53:16.627Z,0.00
2019-02-04T01:54:16.712Z,0.00
2019-02-04T01:55:16.804Z,0.00
2019-02-04T01:56:16.883Z,0.00
2019-02-04T01:57:16.967Z,0.00
2019-02-04T01:58:17.053Z,0.00
2019-02-04T01:59:17.137Z,0.00
2019-02-04T02:00:17.220Z,0.00
2019-02-04T02:01:17.316Z,0.00
2019-02-04T02:02:17.400Z,0.00
2019-02-04T02:03:17.481Z,0.00
2019-02-04T02:04:17.566Z,0.00
2019-02-04T02:05:17.660Z,0.00
2019-02-04T02:06:17.733Z,0.00
2019-02-04T02:07:17.818Z,0.00
2019-02-04T02:08:17.905Z,0.00
2019-02-04T02:09:17.985Z,0.00
2019-02-04T02:10:18.075Z,0.00
2019-02-04T02:11:18.163Z,0.00
2019-02-04T02:12:18.253Z,0.00
2019-02-04T02:13:18.332Z,0.00
2019-02-04T02:14:18.416Z,0.00
2019-02-04T02:15:18.502Z,0.00
2019-02-04T02:16:18.591Z,0.00
2019-02-04T02:17:26.103Z,0.00
2019-02-04T02:18:18.765Z,0.00
2019-02-04T02:19:18.850Z,0.00
2019-02-04T02:20:18.939Z,0.00
2019-02-04T02:21:19.024Z,0.00
2019-02-04T02:22:19.108Z,0.00
2019-02-04T02:23:19.195Z,0.00
2019-02-04T02:24:19.278Z,0.00
2019-02-04T02:25:19.366Z,0.00
2019-02-04T02:26:19.451Z,0.00
2019-02-04T02:27:19.541Z,0.00
2019-02-04T02:28:19.620Z,0.00
2019-02-04T02:29:19.704Z,0.00
2019-02-04T02:30:19.793Z,0.00
2019-02-04T02:31:19.875Z,0.00
2019-02-04T02:32:19.961Z,0.00
2019-02-04T02:33:20.051Z,0.00
2019-02-04T02:34:20.137Z,0.00
2019-02-04T02:35:20.221Z,0.00
2019-02-04T02:36:20.308Z,0.00
2019-02-04T02:37:20.397Z,0.00
2019-02-04T02:38:20.479Z,0.00
2019-02-04T02:39:20.561Z,0.00
2019-02-04T02:40:20.650Z,0.00
2019-02-04T02:41:20.722Z,0.00
2019-02-04T02:42:20.804Z,0.00
2019-02-04T02:43:20.898Z,0.00
2019-02-04T02:44:20.984Z,0.00
2019-02-04T02:45:21.066Z,0.00
2019-02-04T02:46:21.152Z,0.00
2019-02-04T02:47:21.247Z,0.00
2019-02-04T02:48:21.322Z,0.00
2019-02-04T02:49:21.416Z,0.00
2019-02-04T02:50:21.494Z,0.00
2019-02-04T02:51:21.684Z,0.00
2019-02-04T02:52:21.667Z,0.00
2019-02-04T02:53:21.752Z,0.00
2019-02-04T02:54:21.840Z,0.00
2019-02-04T02:55:21.925Z,0.00
2019-02-04T02:56:22.014Z,0.00
2019-02-04T02:57:22.105Z,0.00
2019-02-04T02:58:22.183Z,0.00
2019-02-04T02:59:22.277Z,0.00
2019-02-04T03:00:22.358Z,0.00
2019-02-04T03:01:22.443Z,0.00
2019-02-04T03:02:22.524Z,0.00
2019-02-04T03:03:22.613Z,0.00
2019-02-04T03:04:22.695Z,0.00
2019-02-04T03:05:22.782Z,0.00
2019-02-04T03:06:22.869Z,0.00
2019-02-04T03:07:22.957Z,0.00
2019-02-04T03:08:23.042Z,0.00
2019-02-04T03:09:23.126Z,0.00
2019-02-04T03:10:23.212Z,0.00
2019-02-04T03:11:23.298Z,0.00
2019-02-04T03:12:23.384Z,0.00
2019-02-04T03:13:23.475Z,0.00
2019-02-04T03:14:23.561Z,0.00
2019-02-04T03:15:23.645Z,0.00
2019-02-04T03:16:23.731Z,0.00
2019-02-04T03:17:23.814Z,0.00
2019-02-04T03:18:23.901Z,0.00
2019-02-04T03:19:23.993Z,0.00
2019-02-04T03:20:24.070Z,0.00
2019-02-04T03:21:24.165Z,0.00
2019-02-04T03:22:24.248Z,0.00
2019-02-04T03:23:24.329Z,0.00
2019-02-04T03:24:24.417Z,0.00
2019-02-04T03:25:24.497Z,0.00
2019-02-04T03:26:24.585Z,0.00
2019-02-04T03:27:24.671Z,0.00
2019-02-04T03:28:24.757Z,0.00
2019-02-04T03:29:24.841Z,0.00
2019-02-04T03:30:24.929Z,0.00
2019-02-04T03:31:25.017Z,0.00
2019-02-04T03:32:25.103Z,0.00
2019-02-04T03:33:25.184Z,0.00
2019-02-04T03:34:25.269Z,0.00
2019-02-04T03:35:25.364Z,0.00
2019-02-04T03:36:25.439Z,0.00
2019-02-04T03:37:25.521Z,0.00
2019-02-04T03:38:25.607Z,0.00
2019-02-04T03:39:25.692Z,0.00
2019-02-04T03:40:25.779Z,0.00
2019-02-04T03:41:25.865Z,0.00
2019-02-04T03:42:26.038Z,0.00
2019-02-04T03:43:26.036Z,0.00
2019-02-04T03:44:26.128Z,0.00
2019-02-04T03:45:26.206Z,0.00
2019-02-04T03:46:26.288Z,0.00
2019-02-04T03:47:26.372Z,0.00
2019-02-04T03:48:26.456Z,0.00
2019-02-04T03:49:26.543Z,0.00
2019-02-04T03:50:26.626Z,0.00
2019-02-04T03:51:26.711Z,0.00
2019-02-04T03:52:26.801Z,0.00
2019-02-04T03:53:26.887Z,0.00
2019-02-04T03:54:26.970Z,0.00
2019-02-04T03:55:27.058Z,0.00
2019-02-04T03:56:27.164Z,0.00
2019-02-04T03:57:27.244Z,0.00
2019-02-04T03:58:27.333Z,0.00
2019-02-04T03:59:27.418Z,0.00
2019-02-04T04:00:27.499Z,0.00
2019-02-04T04:01:27.587Z,0.00
2019-02-04T04:02:27.675Z,0.00
2019-02-04T04:03:27.762Z,0.00
2019-02-04T04:04:27.845Z,0.00
2019-02-04T04:05:27.934Z,0.00
2019-02-04T04:06:28.018Z,0.00
2019-02-04T04:07:28.110Z,0.00
2019-02-04T04:08:28.190Z,0.00
2019-02-04T04:09:28.276Z,0.00
2019-02-04T04:10:28.359Z,0.00
2019-02-04T04:11:28.449Z,0.00
2019-02-04T04:12:28.534Z,0.00
2019-02-04T04:13:28.616Z,0.00
2019-02-04T04:14:28.703Z,0.00
2019-02-04T04:15:28.789Z,0.00
2019-02-04T04:16:28.872Z,0.00
2019-02-04T04:17:28.962Z,0.00
2019-02-04T04:18:29.046Z,0.00
2019-02-04T04:19:29.131Z,0.00
2019-02-04T04:20:29.215Z,0.00
2019-02-04T04:21:29.300Z,0.00
2019-02-04T04:22:29.380Z,0.00
2019-02-04T04:23:29.467Z,0.00
2019-02-04T04:24:29.553Z,0.00
2019-02-04T04:25:29.639Z,0.00
2019-02-04T04:26:29.726Z,0.00
2019-02-04T04:27:29.814Z,0.00
2019-02-04T04:28:29.898Z,0.00
2019-02-04T04:29:29.986Z,0.00
2019-02-04T04:30:30.074Z,0.00
2019-02-04T04:31:30.158Z,0.00
2019-02-04T04:32:30.246Z,0.00
2019-02-04T04:33:30.336Z,0.00
2019-02-04T04:34:30.408Z,0.00
2019-02-04T04:35:30.490Z,0.00
2019-02-04T04:36:30.574Z,0.00
2019-02-04T04:37:30.661Z,0.00
2019-02-04T04:38:30.745Z,0.00
2019-02-04T04:39:30.832Z,0.00
2019-02-04T04:40:30.921Z,0.00
2019-02-04T04:41:31.004Z,0.00
2019-02-04T04:42:31.089Z,0.00
2019-02-04T04:43:31.178Z,0.00
2019-02-04T04:44:31.280Z,0.00
2019-02-04T04:45:31.344Z,0.00
2019-02-04T04:46:31.432Z,0.00
2019-02-04T04:47:31.517Z,0.00
2019-02-04T04:48:31.601Z,0.00
2019-02-04T04:49:31.686Z,0.00
2019-02-04T04:50:31.771Z,0.00
2019-02-04T04:51:31.853Z,0.00
2019-02-04T04:52:31.934Z,0.00
2019-02-04T04:53:32.018Z,0.00
2019-02-04T04:54:32.104Z,0.00
2019-02-04T04:55:32.191Z,0.00
2019-02-04T04:56:32.277Z,0.00
2019-02-04T04:57:32.368Z,0.00
2019-02-04T04:58:32.447Z,0.00
2019-02-04T04:59:32.532Z,0.00
2019-02-04T05:00:32.617Z,0.00
2019-02-04T05:01:32.702Z,0.00
2019-02-04T05:02:32.787Z,0.00
2019-02-04T05:03:32.872Z,0.00
2019-02-04T05:04:32.963Z,0.00
2019-02-04T05:05:33.047Z,0.00
2019-02-04T05:06:33.135Z,0.00
2019-02-04T05:07:33.217Z,0.00
2019-02-04T05:08:33.302Z,0.00
2019-02-04T05:09:33.389Z,0.00
2019-02-04T05:10:33.475Z,0.00
2019-02-04T05:11:33.560Z,0.00
2019-02-04T05:12:33.645Z,0.00
2019-02-04T05:13:33.732Z,0.00
2019-02-04T05:14:33.819Z,0.00
2019-02-04T05:15:33.908Z,0.00
2019-02-04T05:16:33.989Z,0.00
2019-02-04T05:17:34.081Z,0.00
2019-02-04T05:18:38.257Z,0.00
2019-02-04T05:19:34.253Z,0.00
2019-02-04T05:20:34.339Z,0.00
2019-02-04T05:21:34.422Z,0.00
2019-02-04T05:22:34.508Z,0.00
2019-02-04T05:23:34.590Z,0.00
2019-02-04T05:24:34.681Z,0.00
2019-02-04T05:25:34.763Z,0.00
2019-02-04T05:26:34.849Z,0.00
2019-02-04T05:27:34.933Z,0.00
2019-02-04T05:28:35.019Z,0.00
2019-02-04T05:29:35.106Z,0.00
2019-02-04T05:30:35.190Z,4.00
2019-02-04T05:31:35.276Z,4.00
2019-02-04T05:32:35.362Z,4.00
2019-02-04T05:33:35.443Z,4.00
2019-02-04T05:34:35.597Z,4.00
2019-02-04T05:35:35.610Z,4.00
2019-02-04T05:36:35.695Z,4.00
2019-02-04T05:37:35.784Z,4.00
2019-02-04T05:38:35.870Z,4.00
2019-02-04T05:39:35.954Z,4.00
2019-02-04T05:40:36.038Z,4.00
2019-02-04T05:41:36.127Z,4.00
2019-02-04T05:42:36.210Z,4.00
2019-02-04T05:43:36.294Z,8.00
2019-02-04T05:44:36.383Z,4.00
2019-02-04T05:45:36.519Z,4.00
2019-02-04T05:46:36.556Z,4.00
2019-02-04T05:47:36.644Z,4.00
2019-02-04T05:48:36.729Z,4.00
2019-02-04T05:49:36.813Z,4.00
2019-02-04T05:50:36.934Z,4.00
2019-02-04T05:51:37.015Z,4.00
2019-02-04T05:52:37.094Z,4.00
2019-02-04T05:53:37.184Z,4.00
2019-02-04T05:54:37.266Z,4.00
2019-02-04T05:55:37.341Z,4.00
2019-02-04T05:56:37.444Z,4.00
2019-02-04T05:57:37.530Z,4.00
2019-02-04T05:58:37.620Z,4.00
2019-02-04T05:59:37.702Z,4.00
2019-02-04T06:00:37.788Z,4.00
2019-02-04T06:01:37.874Z,4.00
2019-02-04T06:02:37.961Z,4.00
2019-02-04T06:03:38.046Z,4.00
2019-02-04T06:04:38.133Z,4.00
2019-02-04T06:05:38.224Z,4.00
2019-02-04T06:06:38.304Z,4.00
2019-02-04T06:07:38.393Z,4.00
2019-02-04T06:08:38.479Z,4.00
2019-02-04T06:09:38.586Z,4.00
2019-02-04T06:10:38.672Z,4.00
2019-02-04T06:11:38.757Z,4.00
2019-02-04T06:12:38.848Z,4.00
2019-02-04T06:13:38.931Z,4.00
2019-02-04T06:14:39.016Z,8.00
2019-02-04T06:15:39.101Z,4.00
2019-02-04T06:16:39.186Z,4.00
2019-02-04T06:17:39.271Z,4.00
2019-02-04T06:18:39.357Z,4.00
2019-02-04T06:19:39.440Z,4.00
2019-02-04T06:20:39.530Z,4.00
2019-02-04T06:21:39.622Z,4.00
2019-02-04T06:22:39.721Z,4.00
2019-02-04T06:23:39.807Z,4.00
2019-02-04T06:24:39.888Z,4.00
2019-02-04T06:25:39.976Z,4.00
2019-02-04T06:26:40.067Z,4.00
2019-02-04T06:27:40.152Z,8.00
2019-02-04T06:28:40.238Z,8.00
2019-02-04T06:29:40.329Z,4.00
2019-02-04T06:30:40.409Z,8.00
2019-02-04T06:31:40.499Z,4.00
2019-02-04T06:32:40.584Z,8.00
2019-02-04T06:33:40.677Z,8.00
2019-02-04T06:34:40.748Z,4.00
2019-02-04T06:35:40.832Z,8.00
2019-02-04T06:36:40.920Z,8.00
2019-02-04T06:37:41.027Z,8.00
2019-02-04T06:38:41.091Z,4.00
2019-02-04T06:39:41.179Z,8.00
2019-02-04T06:40:41.265Z,8.00
2019-02-04T06:41:41.351Z,12.00
2019-02-04T06:42:41.439Z,12.00
2019-02-04T06:43:41.526Z,16.00
2019-02-04T06:44:41.612Z,16.00
2019-02-04T06:45:41.707Z,20.00
2019-02-04T06:46:41.783Z,20.00
2019-02-04T06:47:41.871Z,24.00
2019-02-04T06:48:41.955Z,28.00
2019-02-04T06:49:42.041Z,28.00
2019-02-04T06:50:42.130Z,32.00
2019-02-04T06:51:42.215Z,32.00
2019-02-04T06:52:42.303Z,36.00
2019-02-04T06:53:42.393Z,40.00
2019-02-04T06:54:42.479Z,44.00
2019-02-04T06:55:42.567Z,48.00
2019-02-04T06:56:42.652Z,56.00
2019-02-04T06:57:42.841Z,60.00
2019-02-04T06:58:42.811Z,60.00
2019-02-04T06:59:42.913Z,68.00
2019-02-04T07:00:42.999Z,72.00
2019-02-04T07:01:43.089Z,76.00
2019-02-04T07:02:43.175Z,88.00
2019-02-04T07:03:43.267Z,100.00
2019-02-04T07:04:43.350Z,100.00
2019-02-04T07:05:44.193Z,112.00
2019-02-04T07:06:43.522Z,124.00
2019-02-04T07:07:43.606Z,128.00
2019-02-04T07:08:43.696Z,136.00
2019-02-04T07:09:43.796Z,144.00
2019-02-04T07:10:43.890Z,156.00
2019-02-04T07:11:43.976Z,164.00
2019-02-04T07:12:44.061Z,180.00
2019-02-04T07:13:44.153Z,200.00
2019-02-04T07:14:44.247Z,212.00
2019-02-04T07:15:44.341Z,228.00
2019-02-04T07:16:44.412Z,244.00
2019-02-04T07:17:44.501Z,268.00
2019-02-04T07:18:44.589Z,296.00
2019-02-04T07:19:44.676Z,324.00
2019-02-04T07:20:44.770Z,348.00
2019-02-04T07:21:44.965Z,364.00
2019-02-04T07:22:44.943Z,376.00
2019-02-04T07:23:45.026Z,404.00
2019-02-04T07:24:45.111Z,428.00
2019-02-04T07:25:45.199Z,476.00
2019-02-04T07:26:45.287Z,560.00
2019-02-04T07:27:45.373Z,684.00
2019-02-04T07:28:45.463Z,808.00
2019-02-04T07:29:45.545Z,896.00
2019-02-04T07:30:45.631Z,896.00
2019-02-04T07:31:45.718Z,924.00
2019-02-04T07:32:45.810Z,1000.00
2019-02-04T07:33:45.898Z,1052.00
2019-02-04T07:34:45.982Z,1104.00
2019-02-04T07:35:46.068Z,1152.00
2019-02-04T07:36:46.158Z,1208.00
2019-02-04T07:37:46.246Z,1188.00
2019-02-04T07:38:46.334Z,1216.00
2019-02-04T07:39:46.421Z,1228.00
2019-02-04T07:40:46.510Z,1268.00
2019-02-04T07:41:46.584Z,1332.00
2019-02-04T07:42:46.686Z,1384.00
2019-02-04T07:43:46.778Z,1388.00
2019-02-04T07:44:46.866Z,1440.00
2019-02-04T07:45:46.946Z,1420.00
2019-02-04T07:46:47.031Z,1444.00
2019-02-04T07:47:47.120Z,1480.00
2019-02-04T07:48:47.203Z,1504.00
2019-02-04T07:49:47.293Z,1516.00
2019-02-04T07:50:47.385Z,1516.00
2019-02-04T07:51:50.293Z,1520.00
2019-02-04T07:52:47.557Z,1516.00
2019-02-04T07:53:47.666Z,1528.00
2019-02-04T07:54:47.751Z,1548.00
2019-02-04T07:55:47.838Z,1572.00
2019-02-04T07:56:47.923Z,1596.00
2019-02-04T07:57:48.010Z,1612.00
2019-02-04T07:58:48.097Z,1628.00
2019-02-04T07:59:48.183Z,1648.00
2019-02-04T08:00:48.287Z,1660.00
2019-02-04T08:01:48.372Z,1696.00
2019-02-04T08:02:48.457Z,1700.00
2019-02-04T08:03:48.544Z,1784.00
2019-02-04T08:04:48.633Z,1748.00
2019-02-04T08:05:48.791Z,1788.00
2019-02-04T08:06:48.807Z,1752.00
2019-02-04T08:07:48.898Z,1800.00
2019-02-04T08:08:48.981Z,1844.00
2019-02-04T08:09:49.069Z,1848.00
2019-02-04T08:10:49.164Z,1900.00
2019-02-04T08:11:49.242Z,1936.00
2019-02-04T08:13:00.601Z,1972.00
2019-02-04T08:13:49.405Z,2004.00
2019-02-04T08:14:49.493Z,2052.00
2019-02-04T08:15:49.581Z,2060.00
2019-02-04T08:16:49.667Z,2064.00
2019-02-04T08:17:49.752Z,2116.00
2019-02-04T08:18:49.835Z,2104.00
2019-02-04T08:19:49.925Z,2136.00
2019-02-04T08:20:50.009Z,2164.00
2019-02-04T08:21:50.098Z,2144.00
2019-02-04T08:22:50.188Z,2148.00
2019-02-04T08:23:50.272Z,2220.00
2019-02-04T08:24:50.353Z,2200.00
2019-02-04T08:25:50.444Z,2296.00
2019-02-04T08:26:50.526Z,2284.00
2019-02-04T08:27:50.616Z,2292.00
2019-02-04T08:28:50.702Z,2292.00
2019-02-04T08:29:50.785Z,2376.00
2019-02-04T08:30:50.876Z,2424.00
2019-02-04T08:31:50.960Z,2380.00
2019-02-04T08:32:51.044Z,2388.00
2019-02-04T08:33:51.133Z,2460.00
2019-02-04T08:34:51.220Z,2364.00
2019-02-04T08:35:51.308Z,2372.00
2019-02-04T08:36:51.395Z,2436.00
2019-02-04T08:37:51.481Z,2472.00
2019-02-04T08:38:51.576Z,2400.00
2019-02-04T08:39:51.665Z,2472.00
2019-02-04T08:40:51.755Z,2452.00
2019-02-04T08:41:51.841Z,2368.00
2019-02-04T08:42:51.928Z,2484.00
2019-02-04T08:43:52.017Z,2556.00
2019-02-04T08:44:52.104Z,2696.00
2019-02-04T08:45:52.193Z,2624.00
2019-02-04T08:46:52.280Z,2532.00
2019-02-04T08:47:52.367Z,2504.00
2019-02-04T08:48:52.473Z,2480.00
2019-02-04T08:49:58.569Z,2460.00
2019-02-04T08:50:52.642Z,2504.00
2019-02-04T08:51:52.730Z,2616.00
2019-02-04T08:52:52.822Z,2704.00
2019-02-04T08:53:52.905Z,2792.00
2019-02-04T08:54:52.993Z,2920.00
2019-02-04T08:55:53.082Z,2996.00
2019-02-04T08:56:53.156Z,3024.00
2019-02-04T08:57:53.248Z,2940.00
2019-02-04T08:58:53.334Z,3072.00
2019-02-04T08:59:53.425Z,2924.00
2019-02-04T09:00:53.512Z,2924.00
2019-02-04T09:01:53.597Z,3116.00
2019-02-04T09:02:53.686Z,3048.00
2019-02-04T09:03:53.773Z,3032.00
2019-02-04T09:04:53.862Z,3148.00
2019-02-04T09:05:53.952Z,3156.00
2019-02-04T09:06:54.034Z,3116.00
2019-02-04T09:07:54.125Z,3272.00
2019-02-04T09:08:54.209Z,3236.00
2019-02-04T09:09:54.298Z,3340.00
2019-02-04T09:10:54.386Z,3320.00
2019-02-04T09:11:54.472Z,3284.00
2019-02-04T09:12:54.561Z,3448.00
2019-02-04T09:13:54.642Z,3660.00
2019-02-04T09:14:54.729Z,3744.00
2019-02-04T09:15:54.815Z,3796.00
2019-02-04T09:16:54.903Z,3736.00
2019-02-04T09:17:54.988Z,3732.00
2019-02-04T09:18:55.078Z,3832.00
2019-02-04T09:19:55.158Z,3748.00
2019-02-04T09:20:55.253Z,3712.00
2019-02-04T09:21:55.341Z,3744.00
2019-02-04T09:22:55.425Z,3956.00
2019-02-04T09:23:55.515Z,4044.00
2019-02-04T09:24:55.601Z,4168.00
2019-02-04T09:25:55.689Z,4180.00
2019-02-04T09:26:55.776Z,4120.00
2019-02-04T09:27:55.866Z,4328.00
2019-02-04T09:28:55.949Z,4060.00
2019-02-04T09:29:56.042Z,4204.00
2019-02-04T09:30:56.125Z,4332.00
2019-02-04T09:31:56.213Z,4404.00
2019-02-04T09:32:56.301Z,4652.00
2019-02-04T09:33:56.389Z,4520.00
2019-02-04T09:34:56.474Z,4460.00
2019-02-04T09:35:56.561Z,4420.00
2019-02-04T09:36:56.650Z,4756.00
2019-02-04T09:37:56.754Z,4932.00
2019-02-04T09:38:56.841Z,4960.00
2019-02-04T09:39:57.047Z,5116.00
2019-02-04T09:40:57.020Z,4936.00
2019-02-04T09:41:57.107Z,5000.00
2019-02-04T09:42:57.192Z,4988.00
2019-02-04T09:43:57.284Z,4876.00
2019-02-04T09:44:57.373Z,4776.00
2019-02-04T09:45:57.460Z,5180.00
2019-02-04T09:46:57.546Z,5092.00
2019-02-04T09:47:57.635Z,5084.00
2019-02-04T09:48:57.721Z,5040.00
2019-02-04T09:49:57.810Z,4964.00
2019-02-04T09:50:57.897Z,5072.00
2019-02-04T09:51:57.988Z,4956.00
2019-02-04T09:52:58.073Z,5104.00
2019-02-04T09:53:58.157Z,5176.00
2019-02-04T09:54:58.248Z,5016.00
2019-02-04T09:55:58.337Z,5040.00
2019-02-04T09:56:58.417Z,5328.00
2019-02-04T09:57:58.515Z,4912.00
2019-02-04T09:58:58.604Z,4644.00
2019-02-04T09:59:58.724Z,4628.00
2019-02-04T10:00:58.779Z,4404.00
2019-02-04T10:01:58.872Z,4440.00
2019-02-04T10:02:58.960Z,4240.00
2019-02-04T10:03:59.050Z,4248.00
2019-02-04T10:04:59.136Z,4120.00
2019-02-04T10:05:59.254Z,4420.00
2019-02-04T10:06:59.307Z,4676.00
2019-02-04T10:07:59.391Z,4372.00
2019-02-04T10:08:59.480Z,4216.00
2019-02-04T10:09:59.569Z,4196.00
2019-02-04T10:10:59.659Z,4144.00
2019-02-04T10:11:59.744Z,4432.00
2019-02-04T10:12:59.833Z,4344.00
2019-02-04T10:13:59.925Z,4300.00
2019-02-04T10:15:00.029Z,4344.00
2019-02-04T10:16:00.112Z,4308.00
2019-02-04T10:17:00.200Z,4300.00
2019-02-04T10:18:00.288Z,4336.00
2019-02-04T10:19:00.402Z,4360.00
2019-02-04T10:20:00.495Z,4444.00
2019-02-04T10:21:00.563Z,4384.00
2019-02-04T10:22:00.674Z,4412.00
2019-02-04T10:23:00.762Z,4328.00
2019-02-04T10:24:00.836Z,4392.00
2019-02-04T10:25:00.908Z,4432.00
2019-02-04T10:26:01.020Z,4244.00
2019-02-04T10:27:01.094Z,4356.00
2019-02-04T10:28:01.171Z,4292.00
2019-02-04T10:29:01.319Z,4264.00
2019-02-04T10:30:01.373Z,4404.00
2019-02-04T10:31:01.521Z,4352.00
2019-02-04T10:32:01.597Z,4276.00
2019-02-04T10:33:01.632Z,4244.00
2019-02-04T10:34:01.744Z,4176.00
2019-02-04T10:35:01.820Z,4232.00
2019-02-04T10:36:01.892Z,4052.00
2019-02-04T10:37:01.981Z,4340.00
2019-02-04T10:38:02.190Z,4204.00
2019-02-04T10:39:02.180Z,4400.00
2019-02-04T10:40:02.278Z,4376.00
2019-02-04T10:41:02.357Z,4400.00
2019-02-04T10:42:02.447Z,4492.00
2019-02-04T10:43:02.594Z,4492.00
2019-02-04T10:44:02.621Z,4624.00
2019-02-04T10:45:02.718Z,4556.00
2019-02-04T10:46:04.720Z,4568.00
2019-02-04T10:47:02.901Z,4492.00
2019-02-04T10:48:02.979Z,4548.00
2019-02-04T10:49:03.080Z,4532.00
2019-02-04T10:50:03.159Z,4572.00
2019-02-04T10:51:03.265Z,4792.00
2019-02-04T10:52:03.386Z,4764.00
2019-02-04T10:53:03.423Z,4740.00
2019-02-04T10:54:03.512Z,4748.00
2019-02-04T10:55:03.651Z,4604.00
2019-02-04T10:56:03.737Z,4736.00
2019-02-04T10:57:03.795Z,4784.00
2019-02-04T10:58:03.908Z,4744.00
2019-02-04T10:59:03.977Z,4756.00
2019-02-04T11:00:04.097Z,4784.00
2019-02-04T11:01:04.147Z,4784.00
2019-02-04T11:02:04.230Z,4700.00
2019-02-04T11:03:04.364Z,4752.00
2019-02-04T11:04:04.412Z,4592.00
2019-02-04T11:05:04.523Z,4892.00
2019-02-04T11:06:04.586Z,4840.00
2019-02-04T11:07:04.705Z,4800.00
2019-02-04T11:08:04.855Z,4632.00
2019-02-04T11:09:04.915Z,4668.00
2019-02-04T11:10:04.991Z,4824.00
2019-02-04T11:11:05.073Z,4968.00
2019-02-04T11:12:05.145Z,4108.00
2019-02-04T11:13:05.293Z,4920.00
2019-02-04T11:14:05.326Z,4916.00
2019-02-04T11:15:05.405Z,4968.00
2019-02-04T11:16:05.514Z,5088.00
2019-02-04T11:17:05.668Z,5184.00
2019-02-04T11:18:05.672Z,5012.00
2019-02-04T11:19:05.759Z,4232.00
2019-02-04T11:20:05.893Z,4880.00
2019-02-04T11:21:05.940Z,4944.00
2019-02-04T11:22:06.061Z,5012.00
2019-02-04T11:23:06.155Z,5796.00
2019-02-04T11:24:06.224Z,5032.00
2019-02-04T11:25:06.300Z,4924.00
2019-02-04T11:26:06.507Z,4920.00
2019-02-04T11:27:06.525Z,4820.00
2019-02-04T11:28:06.610Z,4900.00
2019-02-04T11:29:06.735Z,4900.00
2019-02-04T11:30:06.789Z,4852.00
2019-02-04T11:31:06.852Z,4924.00
2019-02-04T11:32:06.939Z,4876.00
2019-02-04T11:33:07.035Z,4936.00
2019-02-04T11:34:07.145Z,5284.00
2019-02-04T11:35:07.218Z,4960.00
2019-02-04T11:36:07.312Z,4968.00
2019-02-04T11:37:07.422Z,4984.00
2019-02-04T11:38:07.487Z,5048.00
2019-02-04T11:39:07.596Z,5036.00
2019-02-04T11:40:07.705Z,4976.00
2019-02-04T11:41:07.832Z,4924.00
2019-02-04T11:42:07.892Z,4976.00
2019-02-04T11:43:07.986Z,4964.00
2019-02-04T11:44:08.021Z,4968.00
2019-02-04T11:45:08.135Z,5320.00
2019-02-04T11:46:08.278Z,4936.00
2019-02-04T11:47:08.403Z,4904.00
2019-02-04T11:48:08.453Z,5168.00
2019-02-04T11:49:08.527Z,4968.00
2019-02-04T11:50:08.619Z,4888.00
2019-02-04T11:51:10.034Z,4936.00
2019-02-04T11:52:08.795Z,4900.00
2019-02-04T11:53:08.886Z,4840.00
2019-02-04T11:54:08.976Z,4972.00
2019-02-04T11:55:09.068Z,4896.00
2019-02-04T11:56:09.158Z,4888.00
2019-02-04T11:57:09.248Z,4852.00
2019-02-04T11:58:09.342Z,4868.00
2019-02-04T11:59:09.432Z,4900.00
2019-02-04T12:00:09.522Z,4944.00
2019-02-04T12:01:09.612Z,4948.00
2019-02-04T12:02:09.704Z,4964.00
2019-02-04T12:03:09.796Z,5016.00
2019-02-04T12:04:09.889Z,5184.00
2019-02-04T12:05:09.977Z,5100.00
2019-02-04T12:06:10.067Z,5052.00
2019-02-04T12:07:10.160Z,4976.00
2019-02-04T12:08:10.249Z,5028.00
2019-02-04T12:09:10.339Z,5056.00
2019-02-04T12:10:10.434Z,4992.00
2019-02-04T12:11:10.521Z,5220.00
2019-02-04T12:12:10.616Z,5032.00
2019-02-04T12:13:10.729Z,5032.00
2019-02-04T12:14:10.822Z,5040.00
2019-02-04T12:15:10.914Z,4996.00
2019-02-04T12:16:11.064Z,4956.00
2019-02-04T12:17:11.135Z,4868.00
2019-02-04T12:18:11.217Z,4844.00
2019-02-04T12:19:11.300Z,4820.00
2019-02-04T12:20:11.391Z,4812.00
2019-02-04T12:21:21.113Z,4788.00
2019-02-04T12:22:11.571Z,4712.00
2019-02-04T12:23:11.660Z,4704.00
2019-02-04T12:24:11.753Z,4712.00
2019-02-04T12:25:11.839Z,4744.00
2019-02-04T12:26:11.949Z,4768.00
2019-02-04T12:27:12.040Z,4740.00
2019-02-04T12:28:12.130Z,4748.00
2019-02-04T12:29:12.227Z,4732.00
2019-02-04T12:30:12.312Z,4708.00
2019-02-04T12:31:12.404Z,4684.00
2019-02-04T12:32:12.494Z,4612.00
2019-02-04T12:33:12.583Z,4644.00
2019-02-04T12:34:12.670Z,4684.00
2019-02-04T12:35:12.760Z,4688.00
2019-02-04T12:36:12.853Z,4776.00
2019-02-04T12:37:12.995Z,4720.00
2019-02-04T12:38:13.037Z,4752.00
2019-02-04T12:39:13.126Z,4772.00
2019-02-04T12:40:13.220Z,4744.00
2019-02-04T12:41:13.306Z,4756.00
2019-02-04T12:42:13.412Z,4692.00
2019-02-04T12:43:13.489Z,4764.00
2019-02-04T12:44:13.577Z,5112.00
2019-02-04T12:45:13.686Z,4780.00